createdAt,value
2018-04-10T00:01:33.453Z,79.60
2018-04-10T00:04:01.675Z,79.50
2018-04-10T00:06:29.300Z,80.00
2018-04-10T00:08:56.855Z,80.10
2018-04-10T00:11:24.841Z,80.50
2018-04-10T00:13:52.377Z,80.50
2018-04-10T00:16:19.933Z,80.60
2018-04-10T00:18:47.557Z,80.70
2018-04-10T00:21:15.141Z,81.00
2018-04-10T00:23:42.754Z,80.90
2018-04-10T00:26:10.339Z,81.20
2018-04-10T00:28:37.916Z,81.50
2018-04-10T00:31:05.463Z,81.30
2018-04-10T00:33:33.019Z,81.60
2018-04-10T00:36:01.162Z,81.70
2018-04-10T00:38:29.139Z,81.10
2018-04-10T00:40:57.125Z,81.50
2018-04-10T00:43:24.684Z,81.50
2018-04-10T00:45:52.596Z,81.90
2018-04-10T00:48:20.560Z,82.20
2018-04-10T00:50:48.778Z,82.20
2018-04-10T00:53:28.720Z,83.00
2018-04-10T00:55:56.667Z,83.40
2018-04-10T00:58:24.270Z,83.40
2018-04-10T01:00:51.830Z,84.00
2018-04-10T01:03:19.373Z,84.30
2018-04-10T01:05:46.944Z,84.60
2018-04-10T01:08:14.498Z,84.90
2018-04-10T01:10:42.055Z,85.10
2018-04-10T01:13:10.123Z,85.40
2018-04-10T01:15:37.706Z,85.40
2018-04-10T01:18:05.870Z,85.60
2018-04-10T01:20:33.463Z,85.80
2018-04-10T01:23:00.998Z,86.20
2018-04-10T01:25:28.573Z,86.50
2018-04-10T01:27:56.123Z,86.60
2018-04-10T01:30:23.767Z,86.60
2018-04-10T01:32:51.320Z,87.10
2018-04-10T01:35:18.922Z,87.40
2018-04-10T01:37:46.485Z,87.50
2018-04-10T01:40:14.125Z,87.50
2018-04-10T01:42:42.468Z,87.50
2018-04-10T01:45:10.908Z,87.70
2018-04-10T01:47:38.465Z,87.70
2018-04-10T01:50:06.043Z,88.00
2018-04-10T01:52:33.833Z,88.00
2018-04-10T01:55:01.776Z,87.90
2018-04-10T01:57:29.351Z,87.90
2018-04-10T01:59:57.612Z,87.90
2018-04-10T02:02:25.195Z,88.00
2018-04-10T02:04:53.152Z,88.50
2018-04-10T02:07:21.202Z,88.70
2018-04-10T02:09:48.752Z,88.70
2018-04-10T02:12:16.324Z,89.10
2018-04-10T02:14:43.884Z,89.50
2018-04-10T02:17:11.425Z,89.80
2018-04-10T02:19:38.972Z,90.00
2018-04-10T02:22:06.537Z,90.10
2018-04-10T02:24:34.115Z,90.00
2018-04-10T02:27:01.716Z,90.10
2018-04-10T02:29:29.635Z,90.40
2018-04-10T02:31:57.210Z,90.40
2018-04-10T02:34:24.771Z,90.50
2018-04-10T02:36:52.975Z,90.60
2018-04-10T02:39:20.908Z,90.80
2018-04-10T02:41:48.470Z,90.80
2018-04-10T02:44:16.024Z,90.70
2018-04-10T02:46:43.589Z,90.80
2018-04-10T02:49:11.815Z,90.90
2018-04-10T02:51:40.175Z,90.90
2018-04-10T02:54:08.178Z,91.20
2018-04-10T02:56:36.619Z,91.20
2018-04-10T02:59:04.568Z,91.20
2018-04-10T03:01:32.171Z,91.30
2018-04-10T03:03:59.790Z,91.30
2018-04-10T03:06:27.367Z,91.40
2018-04-10T03:08:56.158Z,91.10
2018-04-10T03:11:24.160Z,90.90
2018-04-10T03:13:52.342Z,90.90
2018-04-10T03:16:19.952Z,90.70
2018-04-10T03:18:47.511Z,90.70
2018-04-10T03:21:16.085Z,91.00
2018-04-10T03:23:43.694Z,91.00
2018-04-10T03:26:11.227Z,91.10
2018-04-10T03:28:38.785Z,91.50
2018-04-10T03:31:06.738Z,92.10
2018-04-10T03:33:34.559Z,92.10
2018-04-10T03:36:02.432Z,92.40
2018-04-10T03:38:29.984Z,92.60
2018-04-10T03:40:58.346Z,93.00
2018-04-10T03:43:25.937Z,93.00
2018-04-10T03:45:54.400Z,92.70
2018-04-10T03:48:22.819Z,92.40
2018-04-10T03:50:50.392Z,92.30
2018-04-10T03:53:18.866Z,92.60
2018-04-10T03:55:46.432Z,92.60
2018-04-10T03:58:13.946Z,92.70
2018-04-10T04:00:41.580Z,92.50
2018-04-10T04:03:09.140Z,92.40
2018-04-10T04:05:37.708Z,93.00
2018-04-10T04:08:06.869Z,93.00
2018-04-10T04:10:34.423Z,93.40
2018-04-10T04:13:02.053Z,95.00
2018-04-10T04:15:30.253Z,95.00
2018-04-10T04:17:58.341Z,94.40
2018-04-10T04:20:37.659Z,94.00
2018-04-10T04:23:05.223Z,93.90
2018-04-10T04:25:34.504Z,94.30
2018-04-10T04:28:02.065Z,94.30
2018-04-10T04:30:29.723Z,93.80
2018-04-10T04:32:57.605Z,93.60
2018-04-10T04:35:25.195Z,94.00
2018-04-10T04:37:52.766Z,94.10
2018-04-10T04:40:20.354Z,94.30
2018-04-10T04:42:49.118Z,94.40
2018-04-10T04:45:16.771Z,94.60
2018-04-10T04:47:44.335Z,94.60
2018-04-10T04:50:11.904Z,94.50
2018-04-10T04:52:39.504Z,94.30
2018-04-10T04:55:07.072Z,94.30
2018-04-10T04:57:35.885Z,94.50
2018-04-10T05:00:04.325Z,94.60
2018-04-10T05:02:31.876Z,94.80
2018-04-10T05:04:59.476Z,94.70
2018-04-10T05:07:27.043Z,94.40
2018-04-10T05:09:57.295Z,94.40
2018-04-10T05:12:25.318Z,94.30
2018-04-10T05:14:52.868Z,94.30
2018-04-10T05:17:20.412Z,94.20
2018-04-10T05:19:47.992Z,94.10
2018-04-10T05:22:15.581Z,93.80
2018-04-10T05:24:44.021Z,93.30
2018-04-10T05:27:11.981Z,92.10
2018-04-10T05:29:39.524Z,90.10
2018-04-10T05:32:07.523Z,89.90
2018-04-10T05:34:35.083Z,89.90
2018-04-10T05:37:02.627Z,90.60
2018-04-10T05:39:30.172Z,91.30
2018-04-10T05:41:57.800Z,91.90
2018-04-10T05:44:25.392Z,91.70
2018-04-10T05:46:52.952Z,92.20
2018-04-10T05:49:20.576Z,92.10
2018-04-10T05:51:48.155Z,92.30
2018-04-10T05:54:15.811Z,92.50
2018-04-10T05:56:43.548Z,92.60
2018-04-10T05:59:11.757Z,92.30
2018-04-10T06:01:39.326Z,92.20
2018-04-10T06:04:06.851Z,91.80
2018-04-10T06:06:34.472Z,91.30
2018-04-10T06:09:02.052Z,91.50
2018-04-10T06:11:29.676Z,91.70
2018-04-10T06:13:57.218Z,91.80
2018-04-10T06:16:24.772Z,91.60
2018-04-10T06:18:52.332Z,91.30
2018-04-10T06:21:19.886Z,91.10
2018-04-10T06:23:47.441Z,90.50
2018-04-10T06:26:15.013Z,90.10
2018-04-10T06:28:42.603Z,90.00
2018-04-10T06:31:10.139Z,89.80
2018-04-10T06:33:37.724Z,90.10
2018-04-10T06:36:05.326Z,90.30
2018-04-10T06:38:32.900Z,89.90
2018-04-10T06:41:01.294Z,89.30
2018-04-10T06:43:28.822Z,88.80
2018-04-10T06:45:56.766Z,88.70
2018-04-10T06:48:24.335Z,89.30
2018-04-10T06:50:51.899Z,89.50
2018-04-10T06:53:19.455Z,89.40
2018-04-10T06:55:47.040Z,89.20
2018-04-10T06:58:14.652Z,88.60
2018-04-10T07:00:42.195Z,88.30
2018-04-10T07:03:09.765Z,88.10
2018-04-10T07:05:38.008Z,88.30
2018-04-10T07:08:05.579Z,87.50
2018-04-10T07:10:33.147Z,87.00
2018-04-10T07:13:00.725Z,87.10
2018-04-10T07:15:28.291Z,86.70
2018-04-10T07:17:56.671Z,84.70
2018-04-10T07:20:24.229Z,83.40
2018-04-10T07:22:51.784Z,84.00
2018-04-10T07:25:19.428Z,83.40
2018-04-10T07:27:46.948Z,82.40
2018-04-10T07:30:14.503Z,81.40
2018-04-10T07:32:42.683Z,81.20
2018-04-10T07:35:10.297Z,81.00
2018-04-10T07:37:37.819Z,81.70
2018-04-10T07:40:05.377Z,82.70
2018-04-10T07:42:32.929Z,83.20
2018-04-10T07:45:00.496Z,81.60
2018-04-10T07:47:28.060Z,80.50
2018-04-10T07:49:55.600Z,80.50
2018-04-10T07:52:23.145Z,80.00
2018-04-10T07:54:50.688Z,79.50
2018-04-10T07:57:18.273Z,79.30
2018-04-10T07:59:45.831Z,80.00
2018-04-10T08:02:13.394Z,79.30
2018-04-10T08:04:42.411Z,79.40
2018-04-10T08:07:09.941Z,79.40
2018-04-10T08:09:37.511Z,79.50
2018-04-10T08:12:05.060Z,79.90
2018-04-10T08:14:32.904Z,80.20
2018-04-10T08:17:00.449Z,78.50
2018-04-10T08:19:28.024Z,78.30
2018-04-10T08:21:55.542Z,77.80
2018-04-10T08:24:23.124Z,77.00
2018-04-10T08:26:50.668Z,76.60
2018-04-10T08:29:18.310Z,75.60
2018-04-10T08:31:46.784Z,76.00
2018-04-10T08:34:14.339Z,74.40
2018-04-10T08:36:41.929Z,74.20
2018-04-10T08:39:09.462Z,72.60
2018-04-10T08:41:37.032Z,72.20
2018-04-10T08:44:05.599Z,72.90
2018-04-10T08:46:33.232Z,71.40
2018-04-10T08:49:00.791Z,71.50
2018-04-10T08:51:28.350Z,69.50
2018-04-10T08:53:55.920Z,69.00
2018-04-10T08:56:23.460Z,69.20
2018-04-10T08:58:51.259Z,67.90
2018-04-10T09:01:18.862Z,67.00
2018-04-10T09:03:47.281Z,68.40
2018-04-10T09:06:14.830Z,68.70
2018-04-10T09:08:42.461Z,67.80
2018-04-10T09:11:10.030Z,68.10
2018-04-10T09:13:37.615Z,67.60
2018-04-10T09:16:05.695Z,65.80
2018-04-10T09:18:34.944Z,65.00
2018-04-10T09:21:02.482Z,65.70
2018-04-10T09:23:30.085Z,63.00
2018-04-10T09:25:57.664Z,61.00
2018-04-10T09:28:25.217Z,61.80
2018-04-10T09:30:52.803Z,60.60
2018-04-10T09:33:20.372Z,60.20
2018-04-10T09:35:47.996Z,60.10
2018-04-10T09:38:15.559Z,58.80
2018-04-10T09:40:43.108Z,59.80
2018-04-10T09:43:11.513Z,62.00
2018-04-10T09:45:39.086Z,59.30
2018-04-10T09:48:06.657Z,58.40
2018-04-10T09:50:34.213Z,58.50
2018-04-10T09:53:02.658Z,57.00
2018-04-10T09:55:30.176Z,56.80
2018-04-10T09:57:57.723Z,56.00
2018-04-10T10:00:30.990Z,55.30
2018-04-10T10:02:58.520Z,55.10
2018-04-10T10:05:26.786Z,55.70
2018-04-10T10:07:55.215Z,54.90
2018-04-10T10:10:22.807Z,53.20
2018-04-10T10:12:51.294Z,53.60
2018-04-10T10:15:18.914Z,53.00
2018-04-10T10:17:46.424Z,53.30
2018-04-10T10:20:13.968Z,50.20
2018-04-10T10:22:41.646Z,50.50
2018-04-10T10:25:09.217Z,50.00
2018-04-10T10:27:36.749Z,50.70
2018-04-10T10:30:04.295Z,50.30
2018-04-10T10:32:31.840Z,50.30
2018-04-10T10:34:59.415Z,48.20
2018-04-10T10:37:26.956Z,48.50
2018-04-10T10:39:54.506Z,48.50
2018-04-10T10:42:22.033Z,48.80
2018-04-10T10:44:49.608Z,48.80
2018-04-10T10:47:17.881Z,48.90
2018-04-10T10:49:45.505Z,48.40
2018-04-10T10:52:13.036Z,49.00
2018-04-10T10:54:40.572Z,50.60
2018-04-10T10:57:08.115Z,48.00
2018-04-10T10:59:35.644Z,49.40
2018-04-10T11:02:03.189Z,48.40
2018-04-10T11:04:30.759Z,48.20
2018-04-10T11:06:58.338Z,47.40
2018-04-10T11:09:25.879Z,49.30
2018-04-10T11:11:53.443Z,49.20
2018-04-10T11:14:21.048Z,49.50
2018-04-10T11:16:48.590Z,48.50
2018-04-10T11:19:16.166Z,49.20
2018-04-10T11:21:43.727Z,49.50
2018-04-10T11:24:11.720Z,48.90
2018-04-10T11:26:39.284Z,48.30
2018-04-10T11:29:06.875Z,48.00
2018-04-10T11:31:34.584Z,49.10
2018-04-10T11:34:02.129Z,51.20
2018-04-10T11:36:29.700Z,50.70
2018-04-10T11:38:57.238Z,51.10
2018-04-10T11:41:24.832Z,51.10
2018-04-10T11:43:52.378Z,49.70
2018-04-10T11:46:21.400Z,50.10
2018-04-10T11:48:48.930Z,50.20
2018-04-10T11:51:16.451Z,48.20
2018-04-10T11:53:44.076Z,48.00
2018-04-10T11:56:11.659Z,47.20
2018-04-10T11:58:39.700Z,46.80
2018-04-10T12:01:07.303Z,47.00
2018-04-10T12:03:34.882Z,47.00
2018-04-10T12:06:02.452Z,45.30
2018-04-10T12:08:29.997Z,44.90
2018-04-10T12:10:57.588Z,43.00
2018-04-10T12:13:25.849Z,42.10
2018-04-10T12:15:54.176Z,41.40
2018-04-10T12:18:21.822Z,40.10
2018-04-10T12:20:49.405Z,40.30
2018-04-10T12:23:16.976Z,37.90
2018-04-10T12:25:46.165Z,36.50
2018-04-10T12:28:15.787Z,34.70
2018-04-10T12:30:43.369Z,33.80
2018-04-10T12:33:10.902Z,34.10
2018-04-10T12:35:38.490Z,35.00
2018-04-10T12:38:06.052Z,34.90
2018-04-10T12:40:33.634Z,37.10
2018-04-10T12:43:01.240Z,37.60
2018-04-10T12:45:28.825Z,38.40
2018-04-10T12:47:56.442Z,39.20
2018-04-10T12:50:23.978Z,40.20
2018-04-10T12:52:51.534Z,38.90
2018-04-10T12:55:19.150Z,41.00
2018-04-10T12:57:46.722Z,40.10
2018-04-10T13:00:14.670Z,42.60
2018-04-10T13:02:42.251Z,43.30
2018-04-10T13:05:09.877Z,44.70
2018-04-10T13:07:37.450Z,46.10
2018-04-10T13:10:05.028Z,46.00
2018-04-10T13:12:32.660Z,46.70
2018-04-10T13:15:00.196Z,47.70
2018-04-10T13:17:27.740Z,45.20
2018-04-10T13:19:55.322Z,46.10
2018-04-10T13:22:22.916Z,47.20
2018-04-10T13:24:50.505Z,45.80
2018-04-10T13:27:18.063Z,44.90
2018-04-10T13:29:45.605Z,44.80
2018-04-10T13:32:13.182Z,40.80
2018-04-10T13:34:40.770Z,39.60
2018-04-10T13:37:08.336Z,35.80
2018-04-10T13:39:35.922Z,35.20
2018-04-10T13:42:03.555Z,34.10
2018-04-10T13:44:31.391Z,35.10
2018-04-10T13:46:59.764Z,34.40
2018-04-10T13:49:27.307Z,35.40
2018-04-10T13:51:54.888Z,37.00
2018-04-10T13:54:22.555Z,37.20
2018-04-10T13:56:50.004Z,38.10
2018-04-10T13:59:17.571Z,35.80
2018-04-10T14:01:45.095Z,35.80
2018-04-10T14:04:12.681Z,36.80
2018-04-10T14:06:40.304Z,35.80
2018-04-10T14:09:08.019Z,37.40
2018-04-10T14:11:35.548Z,37.60
2018-04-10T14:14:03.116Z,38.90
2018-04-10T14:16:30.684Z,38.30
2018-04-10T14:18:58.238Z,38.70
2018-04-10T14:21:25.812Z,38.60
2018-04-10T14:23:53.393Z,39.90
2018-04-10T14:26:20.979Z,41.20
2018-04-10T14:28:49.388Z,40.70
2018-04-10T14:31:17.899Z,41.10
2018-04-10T14:33:45.435Z,37.80
2018-04-10T14:36:13.702Z,38.40
2018-04-10T14:38:41.240Z,37.40
2018-04-10T14:41:08.785Z,35.60
2018-04-10T14:43:36.343Z,35.30
2018-04-10T14:46:03.898Z,35.70
2018-04-10T14:48:31.482Z,38.00
2018-04-10T14:50:59.029Z,41.00
2018-04-10T14:53:26.586Z,43.50
2018-04-10T14:55:54.129Z,44.80
2018-04-10T14:58:23.545Z,47.00
2018-04-10T15:00:51.107Z,47.20
2018-04-10T15:03:18.734Z,47.10
2018-04-10T15:05:46.478Z,48.20
2018-04-10T15:08:14.239Z,48.90
2018-04-10T15:10:50.712Z,49.60
2018-04-10T15:13:21.152Z,50.90
2018-04-10T15:15:50.056Z,50.30
2018-04-10T15:18:20.237Z,49.70
2018-04-10T15:20:51.340Z,51.30
2018-04-10T15:23:20.664Z,49.90
2018-04-10T15:25:50.400Z,49.60
2018-04-10T15:28:19.232Z,48.80
2018-04-10T15:33:33.521Z,47.00
2018-04-10T15:38:47.470Z,47.60
2018-04-10T15:41:17.668Z,46.70
2018-04-10T15:43:45.303Z,46.40
2018-04-10T15:46:20.538Z,45.80
2018-04-10T15:48:52.904Z,46.70
2018-04-10T15:51:22.575Z,48.00
2018-04-10T15:57:29.325Z,48.70
2018-04-10T15:59:57.855Z,48.40
2018-04-10T16:02:25.755Z,48.30
2018-04-10T16:04:53.795Z,47.40
2018-04-10T16:07:22.062Z,47.70
2018-04-10T16:09:49.589Z,48.50
2018-04-10T16:12:17.300Z,50.10
2018-04-10T16:14:45.242Z,50.60
2018-04-10T16:17:13.079Z,52.20
2018-04-10T16:19:41.357Z,52.80
2018-04-10T16:22:09.098Z,53.00
2018-04-10T16:24:36.676Z,53.30
2018-04-10T16:27:05.936Z,54.20
2018-04-10T16:29:34.073Z,53.90
2018-04-10T16:32:01.850Z,54.20
2018-04-10T16:34:29.489Z,54.80
2018-04-10T16:36:57.073Z,54.70
2018-04-10T16:39:24.705Z,54.80
2018-04-10T16:41:52.275Z,57.70
2018-04-10T16:44:19.810Z,57.20
2018-04-10T16:46:47.351Z,55.80
2018-04-10T16:49:14.931Z,58.40
2018-04-10T16:51:42.514Z,60.20
2018-04-10T16:54:10.151Z,60.80
2018-04-10T16:56:37.712Z,64.40
2018-04-10T16:59:05.273Z,65.20
2018-04-10T17:01:32.879Z,65.20
2018-04-10T17:04:00.440Z,70.30
2018-04-10T17:06:28.026Z,71.60
2018-04-10T17:08:55.589Z,70.50
2018-04-10T17:11:23.141Z,67.80
2018-04-10T17:13:50.853Z,65.10
2018-04-10T17:16:18.395Z,66.80
2018-04-10T17:18:46.069Z,66.50
2018-04-10T17:21:13.625Z,67.10
2018-04-10T17:23:41.187Z,69.40
2018-04-10T17:26:08.758Z,69.30
2018-04-10T17:28:36.307Z,71.20
2018-04-10T17:31:03.896Z,70.40
2018-04-10T17:33:31.607Z,70.20
2018-04-10T17:35:59.173Z,69.70
2018-04-10T17:38:26.739Z,67.70
2018-04-10T17:40:54.292Z,68.90
2018-04-10T17:43:21.875Z,70.90
2018-04-10T17:45:49.593Z,75.20
2018-04-10T17:48:17.152Z,81.30
2018-04-10T17:50:44.745Z,82.40
2018-04-10T17:53:12.397Z,85.70
2018-04-10T17:55:40.486Z,86.00
2018-04-10T17:58:08.098Z,88.20
2018-04-10T18:00:35.699Z,89.90
2018-04-10T18:03:03.277Z,89.90
2018-04-10T18:05:30.858Z,88.00
2018-04-10T18:07:58.428Z,90.80
2018-04-10T18:10:26.305Z,88.10
2018-04-10T18:12:55.329Z,87.00
2018-04-10T18:15:22.889Z,86.60
2018-04-10T18:17:50.427Z,84.60
2018-04-10T18:20:18.409Z,80.00
2018-04-10T18:22:45.978Z,80.00
2018-04-10T18:25:13.601Z,80.10
2018-04-10T18:27:41.196Z,80.20
2018-04-10T18:30:08.816Z,79.60
2018-04-10T18:32:37.477Z,80.70
2018-04-10T18:35:05.987Z,79.60
2018-04-10T18:37:33.615Z,77.50
2018-04-10T18:40:01.176Z,79.30
2018-04-10T18:42:28.806Z,79.30
2018-04-10T18:44:56.825Z,78.30
2018-04-10T18:47:24.455Z,78.30
2018-04-10T18:49:52.023Z,78.30
2018-04-10T18:54:54.011Z,77.40
2018-04-10T18:57:21.570Z,77.80
2018-04-10T18:59:49.148Z,76.90
2018-04-10T19:02:16.726Z,79.90
2018-04-10T19:04:48.393Z,80.10
2018-04-10T19:07:33.878Z,84.00
2018-04-10T19:10:06.088Z,87.30
2018-04-10T19:12:40.077Z,89.60
2018-04-10T19:19:18.281Z,92.40
2018-04-10T19:27:59.855Z,90.00
2018-04-10T19:36:24.676Z,94.30
2018-04-10T19:39:05.285Z,91.80
2018-04-10T19:41:52.429Z,91.80
2018-04-10T19:44:21.977Z,89.40
2018-04-10T19:46:55.397Z,91.00
2018-04-10T19:49:23.512Z,91.30
2018-04-10T19:52:10.706Z,91.30
2018-04-10T19:55:05.523Z,91.80
2018-04-10T19:57:51.425Z,91.20
2018-04-10T20:00:34.629Z,89.20
2018-04-10T20:05:51.036Z,90.20
2018-04-10T20:08:23.446Z,91.20
2018-04-10T20:10:54.824Z,88.20
2018-04-10T20:13:22.471Z,88.70
2018-04-10T20:18:45.099Z,90.00
2018-04-10T20:21:14.629Z,88.20
2018-04-10T20:23:42.712Z,88.90
2018-04-10T20:26:10.334Z,88.90
2018-04-10T20:28:39.877Z,87.60
2018-04-10T20:31:07.478Z,88.00
2018-04-10T20:33:35.102Z,87.50
2018-04-10T20:36:04.042Z,87.80
2018-04-10T20:38:31.807Z,87.80
2018-04-10T20:40:59.392Z,85.30
2018-04-10T20:43:27.940Z,85.30
2018-04-10T20:45:57.260Z,86.90
2018-04-10T20:48:33.786Z,86.90
2018-04-10T20:51:01.573Z,84.70
2018-04-10T20:53:30.255Z,83.60
2018-04-10T20:55:57.871Z,83.90
2018-04-10T20:58:25.535Z,83.00
2018-04-10T21:00:53.634Z,82.10
2018-04-10T21:03:21.293Z,82.10
2018-04-10T21:05:48.846Z,82.00
2018-04-10T21:08:16.402Z,81.90
2018-04-10T21:10:44.413Z,80.80
2018-04-10T21:13:11.991Z,80.80
2018-04-10T21:15:39.609Z,80.80
2018-04-10T21:18:07.155Z,80.10
2018-04-10T21:20:36.434Z,80.30
2018-04-10T21:23:04.063Z,80.90
2018-04-10T21:25:33.120Z,80.40
2018-04-10T21:28:01.143Z,80.60
2018-04-10T21:30:28.734Z,80.40
2018-04-10T21:33:02.175Z,80.10
2018-04-10T21:35:29.929Z,80.10
2018-04-10T21:37:57.525Z,80.30
2018-04-10T21:40:25.099Z,81.10
2018-04-10T21:42:58.960Z,81.30
2018-04-10T21:45:26.546Z,82.10
2018-04-10T21:47:54.091Z,84.50
2018-04-10T21:50:21.650Z,85.50
2018-04-10T21:52:49.236Z,87.20
2018-04-10T21:55:16.805Z,87.90
2018-04-10T21:57:44.937Z,89.50
2018-04-10T22:00:12.530Z,89.50
2018-04-10T22:02:40.105Z,91.80
2018-04-10T22:05:07.671Z,92.30
2018-04-10T22:07:35.224Z,92.90
2018-04-10T22:10:02.797Z,93.00
2018-04-10T22:12:30.759Z,93.40
2018-04-10T22:14:58.753Z,94.20
2018-04-10T22:17:26.323Z,94.20
2018-04-10T22:19:53.893Z,94.30
2018-04-10T22:22:21.425Z,95.50
2018-04-10T22:24:48.987Z,95.90
2018-04-10T22:27:16.550Z,96.70
2018-04-10T22:29:44.143Z,96.80
2018-04-10T22:32:11.713Z,97.20
2018-04-10T22:34:39.286Z,97.90
2018-04-10T22:37:06.885Z,98.60
2018-04-10T22:39:34.452Z,98.40
2018-04-10T22:42:02.012Z,98.90
2018-04-10T22:44:29.569Z,99.60
2018-04-10T22:46:57.129Z,99.80
2018-04-10T22:49:24.754Z,99.80
2018-04-10T22:51:52.896Z,99.80
2018-04-10T22:54:25.659Z,99.80
2018-04-10T22:56:53.978Z,99.80
2018-04-10T22:59:21.591Z,99.80
2018-04-10T23:01:49.193Z,99.80
2018-04-10T23:04:17.308Z,99.80
2018-04-10T23:06:44.872Z,99.80
2018-04-10T23:09:12.437Z,99.80
2018-04-10T23:11:39.961Z,99.80
2018-04-10T23:14:07.516Z,99.80
2018-04-10T23:16:35.629Z,99.80
2018-04-10T23:19:03.216Z,99.80
2018-04-10T23:21:30.790Z,99.80
2018-04-10T23:23:58.339Z,99.80
2018-04-10T23:26:25.904Z,99.80
2018-04-10T23:28:53.480Z,99.80
2018-04-10T23:31:21.641Z,99.80
2018-04-10T23:33:49.221Z,99.80
2018-04-10T23:36:17.201Z,99.80
2018-04-10T23:38:45.133Z,99.80
2018-04-10T23:41:13.259Z,99.80
2018-04-10T23:43:41.199Z,99.80
2018-04-10T23:46:08.746Z,99.80
2018-04-10T23:48:36.312Z,99.80
2018-04-10T23:51:03.903Z,99.80
2018-04-10T23:53:31.898Z,99.80
2018-04-10T23:55:59.778Z,99.80
2018-04-10T23:58:27.597Z,99.80
